sensor_id;sensor_type;location;lat;lon;timestamp;P1;durP1;ratioP1;P2;durP2;ratioP2
41739;SDS011;27422;52.444;13.300;2022-11-15T00:02:04;35.95;;;17.73;;
41739;SDS011;27422;52.444;13.300;2022-11-15T00:04:29;33.75;;;17.50;;
41739;SDS011;27422;52.444;13.300;2022-11-15T00:06:55;33.97;;;17.90;;
41739;SDS011;27422;52.444;13.300;2022-11-15T00:09:20;34.35;;;18.25;;
41739;SDS011;27422;52.444;13.300;2022-11-15T00:11:46;34.88;;;18.77;;
41739;SDS011;27422;52.444;13.300;2022-11-15T00:14:11;33.22;;;18.27;;
41739;SDS011;27422;52.444;13.300;2022-11-15T00:16:36;37.40;;;19.38;;
41739;SDS011;27422;52.444;13.300;2022-11-15T00:19:02;36.28;;;18.83;;
41739;SDS011;27422;52.444;13.300;2022-11-15T00:21:27;34.20;;;17.88;;
41739;SDS011;27422;52.444;13.300;2022-11-15T00:23:53;32.75;;;17.08;;
41739;SDS011;27422;52.444;13.300;2022-11-15T00:26:18;33.47;;;18.67;;
41739;SDS011;27422;52.444;13.300;2022-11-15T00:28:43;35.90;;;18.35;;
41739;SDS011;27422;52.444;13.300;2022-11-15T00:31:12;34.90;;;17.92;;
41739;SDS011;27422;52.444;13.300;2022-11-15T00:33:38;33.92;;;17.55;;
41739;SDS011;27422;52.444;13.300;2022-11-15T00:36:04;33.65;;;18.58;;
41739;SDS011;27422;52.444;13.300;2022-11-15T00:38:35;36.85;;;18.77;;
41739;SDS011;27422;52.444;13.300;2022-11-15T00:41:04;31.85;;;17.67;;
41739;SDS011;27422;52.444;13.300;2022-11-15T00:43:31;33.03;;;18.25;;
41739;SDS011;27422;52.444;13.300;2022-11-15T00:45:57;36.72;;;18.40;;
41739;SDS011;27422;52.444;13.300;2022-11-15T00:48:22;34.60;;;18.50;;
41739;SDS011;27422;52.444;13.300;2022-11-15T00:50:48;34.35;;;18.15;;
41739;SDS011;27422;52.444;13.300;2022-11-15T00:53:14;37.65;;;19.13;;
41739;SDS011;27422;52.444;13.300;2022-11-15T00:55:40;33.88;;;19.92;;
41739;SDS011;27422;52.444;13.300;2022-11-15T00:58:05;33.90;;;18.10;;
41739;SDS011;27422;52.444;13.300;2022-11-15T01:00:30;39.45;;;21.05;;
41739;SDS011;27422;52.444;13.300;2022-11-15T01:02:56;36.08;;;19.63;;
41739;SDS011;27422;52.444;13.300;2022-11-15T01:05:21;37.85;;;19.05;;
41739;SDS011;27422;52.444;13.300;2022-11-15T01:07:47;36.30;;;19.20;;
41739;SDS011;27422;52.444;13.300;2022-11-15T01:10:17;35.45;;;18.73;;
41739;SDS011;27422;52.444;13.300;2022-11-15T01:12:43;39.40;;;18.92;;
41739;SDS011;27422;52.444;13.300;2022-11-15T01:15:08;35.40;;;18.88;;
41739;SDS011;27422;52.444;13.300;2022-11-15T01:17:33;36.85;;;18.85;;
41739;SDS011;27422;52.444;13.300;2022-11-15T01:19:59;38.03;;;19.08;;
41739;SDS011;27422;52.444;13.300;2022-11-15T01:22:24;38.38;;;19.30;;
41739;SDS011;27422;52.444;13.300;2022-11-15T01:24:50;38.13;;;19.50;;
41739;SDS011;27422;52.444;13.300;2022-11-15T01:27:15;39.03;;;19.58;;
41739;SDS011;27422;52.444;13.300;2022-11-15T01:29:41;36.92;;;18.70;;
41739;SDS011;27422;52.444;13.300;2022-11-15T01:32:07;37.25;;;19.83;;
41739;SDS011;27422;52.444;13.300;2022-11-15T01:34:32;38.75;;;19.80;;
41739;SDS011;27422;52.444;13.300;2022-11-15T01:36:57;41.53;;;20.38;;
41739;SDS011;27422;52.444;13.300;2022-11-15T01:39:26;40.85;;;20.83;;
41739;SDS011;27422;52.444;13.300;2022-11-15T01:41:51;39.30;;;19.55;;
41739;SDS011;27422;52.444;13.300;2022-11-15T01:44:31;38.95;;;20.30;;
41739;SDS011;27422;52.444;13.300;2022-11-15T01:46:57;36.90;;;19.23;;
41739;SDS011;27422;52.444;13.300;2022-11-15T01:49:23;36.53;;;19.58;;
41739;SDS011;27422;52.444;13.300;2022-11-15T01:51:49;36.42;;;19.45;;
41739;SDS011;27422;52.444;13.300;2022-11-15T01:54:15;39.53;;;20.73;;
41739;SDS011;27422;52.444;13.300;2022-11-15T01:56:47;34.53;;;18.45;;
41739;SDS011;27422;52.444;13.300;2022-11-15T01:59:15;37.33;;;18.48;;
41739;SDS011;27422;52.444;13.300;2022-11-15T02:01:40;37.10;;;19.20;;
41739;SDS011;27422;52.444;13.300;2022-11-15T02:04:09;36.88;;;19.17;;
41739;SDS011;27422;52.444;13.300;2022-11-15T02:06:35;34.85;;;19.02;;
41739;SDS011;27422;52.444;13.300;2022-11-15T02:09:01;35.13;;;18.13;;
41739;SDS011;27422;52.444;13.300;2022-11-15T02:11:29;39.47;;;19.30;;
41739;SDS011;27422;52.444;13.300;2022-11-15T02:13:55;37.30;;;19.42;;
41739;SDS011;27422;52.444;13.300;2022-11-15T02:31:00;36.63;;;18.83;;
41739;SDS011;27422;52.444;13.300;2022-11-15T02:36:10;35.33;;;19.23;;
41739;SDS011;27422;52.444;13.300;2022-11-15T02:41:23;38.85;;;19.58;;
41739;SDS011;27422;52.444;13.300;2022-11-15T02:46:41;35.80;;;19.27;;
41739;SDS011;27422;52.444;13.300;2022-11-15T02:49:28;37.80;;;18.73;;
41739;SDS011;27422;52.444;13.300;2022-11-15T02:51:56;39.35;;;19.63;;
41739;SDS011;27422;52.444;13.300;2022-11-15T02:54:26;34.83;;;18.80;;
41739;SDS011;27422;52.444;13.300;2022-11-15T02:56:55;36.75;;;19.08;;
41739;SDS011;27422;52.444;13.300;2022-11-15T03:02:14;37.22;;;19.50;;
41739;SDS011;27422;52.444;13.300;2022-11-15T03:07:28;37.47;;;18.30;;
41739;SDS011;27422;52.444;13.300;2022-11-15T03:10:06;37.83;;;18.95;;
41739;SDS011;27422;52.444;13.300;2022-11-15T03:12:46;37.75;;;19.88;;
41739;SDS011;27422;52.444;13.300;2022-11-15T03:15:28;38.70;;;18.95;;
41739;SDS011;27422;52.444;13.300;2022-11-15T03:17:58;41.85;;;19.73;;
41739;SDS011;27422;52.444;13.300;2022-11-15T03:20:36;35.50;;;17.63;;
41739;SDS011;27422;52.444;13.300;2022-11-15T03:23:04;36.50;;;18.83;;
41739;SDS011;27422;52.444;13.300;2022-11-15T03:25:32;36.42;;;19.15;;
41739;SDS011;27422;52.444;13.300;2022-11-15T03:27:58;34.85;;;18.45;;
41739;SDS011;27422;52.444;13.300;2022-11-15T03:30:26;34.80;;;18.35;;
41739;SDS011;27422;52.444;13.300;2022-11-15T03:32:53;36.78;;;18.85;;
41739;SDS011;27422;52.444;13.300;2022-11-15T03:35:22;39.60;;;19.08;;
41739;SDS011;27422;52.444;13.300;2022-11-15T03:40:40;36.03;;;19.20;;
41739;SDS011;27422;52.444;13.300;2022-11-15T03:45:51;37.00;;;18.88;;
41739;SDS011;27422;52.444;13.300;2022-11-15T03:48:24;37.00;;;18.90;;
41739;SDS011;27422;52.444;13.300;2022-11-15T03:50:52;33.88;;;17.95;;
41739;SDS011;27422;52.444;13.300;2022-11-15T03:53:18;35.72;;;18.55;;
41739;SDS011;27422;52.444;13.300;2022-11-15T03:55:44;37.83;;;18.15;;
41739;SDS011;27422;52.444;13.300;2022-11-15T03:58:09;35.38;;;18.75;;
41739;SDS011;27422;52.444;13.300;2022-11-15T04:00:34;35.97;;;18.25;;
41739;SDS011;27422;52.444;13.300;2022-11-15T04:03:00;37.78;;;18.92;;
41739;SDS011;27422;52.444;13.300;2022-11-15T04:05:25;41.90;;;19.88;;
41739;SDS011;27422;52.444;13.300;2022-11-15T04:07:51;35.88;;;18.17;;
41739;SDS011;27422;52.444;13.300;2022-11-15T04:10:16;37.63;;;18.58;;
41739;SDS011;27422;52.444;13.300;2022-11-15T04:12:42;38.20;;;19.55;;
41739;SDS011;27422;52.444;13.300;2022-11-15T04:15:12;38.05;;;18.67;;
41739;SDS011;27422;52.444;13.300;2022-11-15T04:17:45;38.38;;;18.65;;
41739;SDS011;27422;52.444;13.300;2022-11-15T04:20:30;39.78;;;18.02;;
41739;SDS011;27422;52.444;13.300;2022-11-15T04:23:16;36.80;;;18.13;;
41739;SDS011;27422;52.444;13.300;2022-11-15T04:26:05;36.28;;;18.60;;
41739;SDS011;27422;52.444;13.300;2022-11-15T04:28:32;38.33;;;18.65;;
41739;SDS011;27422;52.444;13.300;2022-11-15T04:30:57;37.75;;;18.45;;
41739;SDS011;27422;52.444;13.300;2022-11-15T04:33:23;37.20;;;19.80;;
41739;SDS011;27422;52.444;13.300;2022-11-15T04:35:48;34.55;;;18.63;;
41739;SDS011;27422;52.444;13.300;2022-11-15T04:38:33;38.05;;;18.15;;
41739;SDS011;27422;52.444;13.300;2022-11-15T04:40:59;35.50;;;18.92;;
41739;SDS011;27422;52.444;13.300;2022-11-15T04:43:24;36.95;;;19.38;;
41739;SDS011;27422;52.444;13.300;2022-11-15T04:45:50;36.70;;;19.17;;
41739;SDS011;27422;52.444;13.300;2022-11-15T04:48:15;34.97;;;18.88;;
41739;SDS011;27422;52.444;13.300;2022-11-15T04:50:41;37.13;;;18.50;;
41739;SDS011;27422;52.444;13.300;2022-11-15T04:53:06;36.22;;;18.63;;
41739;SDS011;27422;52.444;13.300;2022-11-15T04:55:32;36.30;;;18.85;;
41739;SDS011;27422;52.444;13.300;2022-11-15T04:57:58;33.53;;;17.98;;
41739;SDS011;27422;52.444;13.300;2022-11-15T05:00:24;42.17;;;19.45;;
41739;SDS011;27422;52.444;13.300;2022-11-15T05:02:50;37.00;;;19.02;;
41739;SDS011;27422;52.444;13.300;2022-11-15T05:05:35;39.22;;;19.45;;
41739;SDS011;27422;52.444;13.300;2022-11-15T05:08:00;38.95;;;20.13;;
41739;SDS011;27422;52.444;13.300;2022-11-15T05:10:25;38.13;;;18.33;;
41739;SDS011;27422;52.444;13.300;2022-11-15T05:12:51;34.13;;;17.05;;
41739;SDS011;27422;52.444;13.300;2022-11-15T05:15:16;35.75;;;18.30;;
41739;SDS011;27422;52.444;13.300;2022-11-15T05:17:42;38.50;;;19.27;;
41739;SDS011;27422;52.444;13.300;2022-11-15T05:20:07;36.80;;;18.73;;
41739;SDS011;27422;52.444;13.300;2022-11-15T05:22:33;35.63;;;18.77;;
41739;SDS011;27422;52.444;13.300;2022-11-15T05:24:58;36.85;;;18.17;;
41739;SDS011;27422;52.444;13.300;2022-11-15T05:27:24;37.67;;;17.83;;
41739;SDS011;27422;52.444;13.300;2022-11-15T05:29:49;35.30;;;18.13;;
41739;SDS011;27422;52.444;13.300;2022-11-15T05:32:15;41.42;;;18.90;;
41739;SDS011;27422;52.444;13.300;2022-11-15T05:34:44;32.97;;;17.52;;
41739;SDS011;27422;52.444;13.300;2022-11-15T05:37:10;36.53;;;17.98;;
41739;SDS011;27422;52.444;13.300;2022-11-15T05:39:35;35.53;;;17.10;;
41739;SDS011;27422;52.444;13.300;2022-11-15T05:42:11;34.58;;;17.00;;
41739;SDS011;27422;52.444;13.300;2022-11-15T05:44:37;39.58;;;19.45;;
41739;SDS011;27422;52.444;13.300;2022-11-15T05:47:05;35.53;;;18.17;;
41739;SDS011;27422;52.444;13.300;2022-11-15T05:49:31;36.85;;;17.80;;
41739;SDS011;27422;52.444;13.300;2022-11-15T05:52:00;36.05;;;18.42;;
41739;SDS011;27422;52.444;13.300;2022-11-15T05:54:28;36.22;;;17.50;;
41739;SDS011;27422;52.444;13.300;2022-11-15T05:56:54;35.08;;;18.60;;
41739;SDS011;27422;52.444;13.300;2022-11-15T05:59:20;36.13;;;18.13;;
41739;SDS011;27422;52.444;13.300;2022-11-15T06:01:46;32.00;;;17.75;;
41739;SDS011;27422;52.444;13.300;2022-11-15T06:04:11;38.17;;;18.70;;
41739;SDS011;27422;52.444;13.300;2022-11-15T06:06:37;38.85;;;17.83;;
41739;SDS011;27422;52.444;13.300;2022-11-15T06:09:02;35.17;;;17.13;;
41739;SDS011;27422;52.444;13.300;2022-11-15T06:11:27;34.28;;;17.40;;
41739;SDS011;27422;52.444;13.300;2022-11-15T06:13:53;32.72;;;17.52;;
41739;SDS011;27422;52.444;13.300;2022-11-15T06:16:19;34.40;;;17.80;;
41739;SDS011;27422;52.444;13.300;2022-11-15T06:18:44;33.45;;;17.52;;
41739;SDS011;27422;52.444;13.300;2022-11-15T06:21:10;33.45;;;17.58;;
41739;SDS011;27422;52.444;13.300;2022-11-15T06:23:35;38.42;;;17.77;;
41739;SDS011;27422;52.444;13.300;2022-11-15T06:26:01;32.15;;;17.10;;
41739;SDS011;27422;52.444;13.300;2022-11-15T06:28:28;34.60;;;17.95;;
41739;SDS011;27422;52.444;13.300;2022-11-15T06:30:54;33.80;;;16.43;;
41739;SDS011;27422;52.444;13.300;2022-11-15T06:33:20;35.92;;;18.13;;
41739;SDS011;27422;52.444;13.300;2022-11-15T06:35:45;30.88;;;16.88;;
41739;SDS011;27422;52.444;13.300;2022-11-15T06:38:13;33.58;;;17.27;;
41739;SDS011;27422;52.444;13.300;2022-11-15T06:40:39;34.30;;;17.70;;
41739;SDS011;27422;52.444;13.300;2022-11-15T06:43:05;31.02;;;15.77;;
41739;SDS011;27422;52.444;13.300;2022-11-15T06:45:31;37.50;;;18.80;;
41739;SDS011;27422;52.444;13.300;2022-11-15T06:47:56;37.05;;;18.23;;
41739;SDS011;27422;52.444;13.300;2022-11-15T06:50:22;35.83;;;18.98;;
41739;SDS011;27422;52.444;13.300;2022-11-15T06:52:48;34.90;;;18.60;;
41739;SDS011;27422;52.444;13.300;2022-11-15T06:55:13;36.35;;;18.60;;
41739;SDS011;27422;52.444;13.300;2022-11-15T06:57:45;36.15;;;18.52;;
41739;SDS011;27422;52.444;13.300;2022-11-15T07:00:17;36.33;;;18.67;;
41739;SDS011;27422;52.444;13.300;2022-11-15T07:02:44;39.17;;;18.88;;
41739;SDS011;27422;52.444;13.300;2022-11-15T07:05:09;39.22;;;19.35;;
41739;SDS011;27422;52.444;13.300;2022-11-15T07:07:35;38.42;;;19.17;;
41739;SDS011;27422;52.444;13.300;2022-11-15T07:10:01;35.42;;;18.50;;
41739;SDS011;27422;52.444;13.300;2022-11-15T07:12:26;36.38;;;18.35;;
41739;SDS011;27422;52.444;13.300;2022-11-15T07:14:51;38.42;;;19.08;;
41739;SDS011;27422;52.444;13.300;2022-11-15T07:17:17;37.78;;;19.15;;
41739;SDS011;27422;52.444;13.300;2022-11-15T07:19:42;37.33;;;20.35;;
41739;SDS011;27422;52.444;13.300;2022-11-15T07:22:08;34.33;;;17.85;;
41739;SDS011;27422;52.444;13.300;2022-11-15T07:24:33;35.53;;;18.55;;
41739;SDS011;27422;52.444;13.300;2022-11-15T07:26:59;34.80;;;19.23;;
41739;SDS011;27422;52.444;13.300;2022-11-15T07:29:24;35.30;;;18.08;;
41739;SDS011;27422;52.444;13.300;2022-11-15T07:31:49;34.25;;;18.05;;
41739;SDS011;27422;52.444;13.300;2022-11-15T07:34:15;35.58;;;17.88;;
41739;SDS011;27422;52.444;13.300;2022-11-15T07:36:41;31.77;;;16.98;;
41739;SDS011;27422;52.444;13.300;2022-11-15T07:39:07;35.15;;;19.52;;
41739;SDS011;27422;52.444;13.300;2022-11-15T07:41:32;37.38;;;18.10;;
41739;SDS011;27422;52.444;13.300;2022-11-15T07:43:58;36.92;;;18.42;;
41739;SDS011;27422;52.444;13.300;2022-11-15T07:46:23;35.67;;;18.75;;
41739;SDS011;27422;52.444;13.300;2022-11-15T07:48:51;35.28;;;18.50;;
41739;SDS011;27422;52.444;13.300;2022-11-15T07:51:19;34.17;;;18.52;;
41739;SDS011;27422;52.444;13.300;2022-11-15T07:53:45;37.08;;;19.05;;
41739;SDS011;27422;52.444;13.300;2022-11-15T07:56:11;36.28;;;18.30;;
41739;SDS011;27422;52.444;13.300;2022-11-15T07:58:37;38.50;;;19.77;;
41739;SDS011;27422;52.444;13.300;2022-11-15T08:01:06;35.75;;;19.30;;
41739;SDS011;27422;52.444;13.300;2022-11-15T08:03:32;37.25;;;18.88;;
41739;SDS011;27422;52.444;13.300;2022-11-15T08:05:58;36.15;;;17.58;;
41739;SDS011;27422;52.444;13.300;2022-11-15T08:08:23;33.15;;;17.95;;
41739;SDS011;27422;52.444;13.300;2022-11-15T08:10:49;33.33;;;17.70;;
41739;SDS011;27422;52.444;13.300;2022-11-15T08:13:14;33.78;;;17.88;;
41739;SDS011;27422;52.444;13.300;2022-11-15T08:15:40;29.38;;;16.55;;
41739;SDS011;27422;52.444;13.300;2022-11-15T08:18:09;35.00;;;18.27;;
41739;SDS011;27422;52.444;13.300;2022-11-15T08:20:36;34.47;;;18.13;;
41739;SDS011;27422;52.444;13.300;2022-11-15T08:23:02;34.20;;;17.67;;
41739;SDS011;27422;52.444;13.300;2022-11-15T08:25:29;51.28;;;25.88;;
41739;SDS011;27422;52.444;13.300;2022-11-15T08:27:56;35.38;;;19.45;;
41739;SDS011;27422;52.444;13.300;2022-11-15T08:30:23;30.38;;;16.08;;
41739;SDS011;27422;52.444;13.300;2022-11-15T08:32:49;29.48;;;17.17;;
41739;SDS011;27422;52.444;13.300;2022-11-15T08:35:16;29.48;;;16.70;;
41739;SDS011;27422;52.444;13.300;2022-11-15T08:37:41;27.77;;;16.25;;
41739;SDS011;27422;52.444;13.300;2022-11-15T08:40:07;24.92;;;15.32;;
41739;SDS011;27422;52.444;13.300;2022-11-15T08:42:33;24.90;;;15.02;;
41739;SDS011;27422;52.444;13.300;2022-11-15T08:44:58;26.40;;;15.82;;
41739;SDS011;27422;52.444;13.300;2022-11-15T08:47:23;27.58;;;15.32;;
41739;SDS011;27422;52.444;13.300;2022-11-15T08:49:49;25.27;;;14.32;;
41739;SDS011;27422;52.444;13.300;2022-11-15T08:52:15;23.48;;;13.50;;
41739;SDS011;27422;52.444;13.300;2022-11-15T08:54:40;22.75;;;13.57;;
41739;SDS011;27422;52.444;13.300;2022-11-15T08:57:06;20.92;;;12.38;;
41739;SDS011;27422;52.444;13.300;2022-11-15T08:59:31;22.80;;;13.55;;
41739;SDS011;27422;52.444;13.300;2022-11-15T09:01:57;21.63;;;12.98;;
41739;SDS011;27422;52.444;13.300;2022-11-15T09:04:22;20.23;;;11.93;;
41739;SDS011;27422;52.444;13.300;2022-11-15T09:06:47;19.02;;;11.30;;
41739;SDS011;27422;52.444;13.300;2022-11-15T09:09:14;18.13;;;10.43;;
41739;SDS011;27422;52.444;13.300;2022-11-15T09:11:39;19.25;;;11.57;;
41739;SDS011;27422;52.444;13.300;2022-11-15T09:14:05;20.67;;;10.82;;
41739;SDS011;27422;52.444;13.300;2022-11-15T09:16:30;18.25;;;11.10;;
41739;SDS011;27422;52.444;13.300;2022-11-15T09:18:56;20.50;;;11.25;;
41739;SDS011;27422;52.444;13.300;2022-11-15T09:21:22;18.63;;;10.57;;
41739;SDS011;27422;52.444;13.300;2022-11-15T09:23:51;15.98;;;9.85;;
41739;SDS011;27422;52.444;13.300;2022-11-15T09:26:17;16.10;;;10.23;;
41739;SDS011;27422;52.444;13.300;2022-11-15T09:28:45;18.15;;;10.27;;
41739;SDS011;27422;52.444;13.300;2022-11-15T09:31:13;18.30;;;10.38;;
41739;SDS011;27422;52.444;13.300;2022-11-15T09:33:39;18.35;;;9.98;;
41739;SDS011;27422;52.444;13.300;2022-11-15T09:36:05;19.05;;;11.88;;
41739;SDS011;27422;52.444;13.300;2022-11-15T09:38:32;19.42;;;10.18;;
41739;SDS011;27422;52.444;13.300;2022-11-15T09:49:02;16.42;;;10.43;;
41739;SDS011;27422;52.444;13.300;2022-11-15T09:51:44;17.98;;;10.40;;
41739;SDS011;27422;52.444;13.300;2022-11-15T09:56:46;19.08;;;10.35;;
41739;SDS011;27422;52.444;13.300;2022-11-15T10:04:33;17.80;;;10.43;;
41739;SDS011;27422;52.444;13.300;2022-11-15T10:09:30;16.65;;;9.80;;
41739;SDS011;27422;52.444;13.300;2022-11-15T10:12:00;15.93;;;9.95;;
41739;SDS011;27422;52.444;13.300;2022-11-15T10:14:26;16.48;;;9.93;;
41739;SDS011;27422;52.444;13.300;2022-11-15T10:17:54;15.43;;;9.40;;
41739;SDS011;27422;52.444;13.300;2022-11-15T10:19:59;15.88;;;8.90;;
41739;SDS011;27422;52.444;13.300;2022-11-15T10:25:22;14.30;;;9.00;;
41739;SDS011;27422;52.444;13.300;2022-11-15T10:30:50;14.63;;;9.00;;
41739;SDS011;27422;52.444;13.300;2022-11-15T10:33:30;18.30;;;10.30;;
41739;SDS011;27422;52.444;13.300;2022-11-15T10:38:35;17.60;;;9.32;;
41739;SDS011;27422;52.444;13.300;2022-11-15T10:41:13;15.27;;;9.48;;
41739;SDS011;27422;52.444;13.300;2022-11-15T10:43:40;14.82;;;8.98;;
41739;SDS011;27422;52.444;13.300;2022-11-15T10:46:22;15.40;;;8.98;;
41739;SDS011;27422;52.444;13.300;2022-11-15T10:48:49;15.57;;;9.23;;
41739;SDS011;27422;52.444;13.300;2022-11-15T10:51:21;16.13;;;9.13;;
41739;SDS011;27422;52.444;13.300;2022-11-15T10:53:53;14.75;;;9.00;;
41739;SDS011;27422;52.444;13.300;2022-11-15T10:56:23;14.52;;;9.40;;
41739;SDS011;27422;52.444;13.300;2022-11-15T10:58:58;16.33;;;9.55;;
41739;SDS011;27422;52.444;13.300;2022-11-15T11:01:24;15.80;;;8.75;;
41739;SDS011;27422;52.444;13.300;2022-11-15T11:04:06;16.90;;;9.50;;
41739;SDS011;27422;52.444;13.300;2022-11-15T11:06:45;14.57;;;8.75;;
41739;SDS011;27422;52.444;13.300;2022-11-15T11:12:03;15.27;;;8.55;;
41739;SDS011;27422;52.444;13.300;2022-11-15T11:14:34;13.45;;;7.95;;
41739;SDS011;27422;52.444;13.300;2022-11-15T11:17:16;14.55;;;8.65;;
41739;SDS011;27422;52.444;13.300;2022-11-15T11:19:56;13.50;;;8.50;;
41739;SDS011;27422;52.444;13.300;2022-11-15T11:28:33;14.85;;;9.13;;
41739;SDS011;27422;52.444;13.300;2022-11-15T11:37:01;13.88;;;8.13;;
41739;SDS011;27422;52.444;13.300;2022-11-15T11:39:39;13.93;;;8.27;;
41739;SDS011;27422;52.444;13.300;2022-11-15T11:42:36;12.25;;;7.35;;
41739;SDS011;27422;52.444;13.300;2022-11-15T11:45:19;12.85;;;7.68;;
41739;SDS011;27422;52.444;13.300;2022-11-15T11:50:29;13.00;;;7.82;;
41739;SDS011;27422;52.444;13.300;2022-11-15T11:55:46;12.32;;;7.15;;
41739;SDS011;27422;52.444;13.300;2022-11-15T11:58:19;11.15;;;7.13;;
41739;SDS011;27422;52.444;13.300;2022-11-15T12:00:57;10.13;;;6.40;;
41739;SDS011;27422;52.444;13.300;2022-11-15T12:03:46;11.07;;;6.80;;
41739;SDS011;27422;52.444;13.300;2022-11-15T12:08:50;10.52;;;5.97;;
41739;SDS011;27422;52.444;13.300;2022-11-15T12:11:23;8.38;;;5.82;;
41739;SDS011;27422;52.444;13.300;2022-11-15T12:13:56;9.40;;;6.20;;
41739;SDS011;27422;52.444;13.300;2022-11-15T12:16:28;9.52;;;6.50;;
41739;SDS011;27422;52.444;13.300;2022-11-15T12:18:55;9.27;;;6.20;;
41739;SDS011;27422;52.444;13.300;2022-11-15T12:24:02;9.15;;;5.32;;
41739;SDS011;27422;52.444;13.300;2022-11-15T12:26:33;8.95;;;5.63;;
41739;SDS011;27422;52.444;13.300;2022-11-15T12:29:09;9.20;;;5.75;;
41739;SDS011;27422;52.444;13.300;2022-11-15T12:31:50;9.18;;;5.30;;
41739;SDS011;27422;52.444;13.300;2022-11-15T12:36:52;8.35;;;5.72;;
41739;SDS011;27422;52.444;13.300;2022-11-15T12:39:17;10.48;;;6.07;;
41739;SDS011;27422;52.444;13.300;2022-11-15T12:41:44;10.07;;;6.03;;
41739;SDS011;27422;52.444;13.300;2022-11-15T12:52:05;9.45;;;5.68;;
41739;SDS011;27422;52.444;13.300;2022-11-15T13:04:48;9.10;;;5.57;;
41739;SDS011;27422;52.444;13.300;2022-11-15T13:17:58;9.35;;;5.50;;
41739;SDS011;27422;52.444;13.300;2022-11-15T13:20:28;9.90;;;5.25;;
41739;SDS011;27422;52.444;13.300;2022-11-15T13:31:25;9.48;;;5.80;;
41739;SDS011;27422;52.444;13.300;2022-11-15T13:33:49;8.73;;;5.25;;
41739;SDS011;27422;52.444;13.300;2022-11-15T13:36:21;8.80;;;5.70;;
41739;SDS011;27422;52.444;13.300;2022-11-15T13:41:25;9.43;;;6.10;;
41739;SDS011;27422;52.444;13.300;2022-11-15T13:43:56;9.63;;;6.28;;
41739;SDS011;27422;52.444;13.300;2022-11-15T13:46:23;9.23;;;5.57;;
41739;SDS011;27422;52.444;13.300;2022-11-15T13:49:09;10.38;;;6.57;;
41739;SDS011;27422;52.444;13.300;2022-11-15T13:51:39;11.73;;;6.45;;
41739;SDS011;27422;52.444;13.300;2022-11-15T13:54:25;9.98;;;6.00;;
41739;SDS011;27422;52.444;13.300;2022-11-15T13:56:53;11.48;;;6.95;;
41739;SDS011;27422;52.444;13.300;2022-11-15T13:59:25;11.18;;;6.40;;
41739;SDS011;27422;52.444;13.300;2022-11-15T14:01:53;11.75;;;6.53;;
41739;SDS011;27422;52.444;13.300;2022-11-15T14:04:20;10.57;;;5.60;;
41739;SDS011;27422;52.444;13.300;2022-11-15T14:06:55;12.02;;;6.78;;
41739;SDS011;27422;52.444;13.300;2022-11-15T14:11:59;12.82;;;7.97;;
41739;SDS011;27422;52.444;13.300;2022-11-15T14:14:26;10.95;;;6.47;;
41739;SDS011;27422;52.444;13.300;2022-11-15T14:19:53;11.73;;;6.60;;
41739;SDS011;27422;52.444;13.300;2022-11-15T14:22:24;11.40;;;6.97;;
41739;SDS011;27422;52.444;13.300;2022-11-15T14:25:14;14.88;;;7.20;;
41739;SDS011;27422;52.444;13.300;2022-11-15T14:30:38;13.20;;;8.18;;
41739;SDS011;27422;52.444;13.300;2022-11-15T14:38:47;13.23;;;7.88;;
41739;SDS011;27422;52.444;13.300;2022-11-15T14:43:44;12.63;;;7.45;;
41739;SDS011;27422;52.444;13.300;2022-11-15T14:46:12;14.07;;;7.97;;
41739;SDS011;27422;52.444;13.300;2022-11-15T14:48:37;13.68;;;8.18;;
41739;SDS011;27422;52.444;13.300;2022-11-15T14:51:03;14.07;;;7.95;;
41739;SDS011;27422;52.444;13.300;2022-11-15T14:53:28;19.05;;;10.25;;
41739;SDS011;27422;52.444;13.300;2022-11-15T14:55:54;15.20;;;9.30;;
41739;SDS011;27422;52.444;13.300;2022-11-15T14:58:22;15.45;;;8.70;;
41739;SDS011;27422;52.444;13.300;2022-11-15T15:00:47;14.32;;;8.10;;
41739;SDS011;27422;52.444;13.300;2022-11-15T15:03:13;12.55;;;7.95;;
41739;SDS011;27422;52.444;13.300;2022-11-15T15:05:42;15.02;;;9.15;;
41739;SDS011;27422;52.444;13.300;2022-11-15T15:08:08;14.95;;;8.85;;
41739;SDS011;27422;52.444;13.300;2022-11-15T15:10:35;13.88;;;8.63;;
41739;SDS011;27422;52.444;13.300;2022-11-15T15:13:05;13.18;;;7.90;;
41739;SDS011;27422;52.444;13.300;2022-11-15T15:15:34;15.05;;;7.70;;
41739;SDS011;27422;52.444;13.300;2022-11-15T15:18:01;14.07;;;8.93;;
41739;SDS011;27422;52.444;13.300;2022-11-15T15:20:27;14.82;;;8.48;;
41739;SDS011;27422;52.444;13.300;2022-11-15T15:22:53;16.05;;;9.27;;
41739;SDS011;27422;52.444;13.300;2022-11-15T15:25:30;13.63;;;8.77;;
41739;SDS011;27422;52.444;13.300;2022-11-15T15:27:58;14.25;;;8.55;;
41739;SDS011;27422;52.444;13.300;2022-11-15T15:30:23;15.27;;;8.07;;
41739;SDS011;27422;52.444;13.300;2022-11-15T15:32:50;14.50;;;9.25;;
41739;SDS011;27422;52.444;13.300;2022-11-15T15:35:15;15.05;;;8.90;;
41739;SDS011;27422;52.444;13.300;2022-11-15T15:37:45;14.80;;;8.18;;
41739;SDS011;27422;52.444;13.300;2022-11-15T15:40:17;16.20;;;8.70;;
41739;SDS011;27422;52.444;13.300;2022-11-15T15:42:45;14.45;;;8.63;;
41739;SDS011;27422;52.444;13.300;2022-11-15T15:45:11;14.77;;;8.73;;
41739;SDS011;27422;52.444;13.300;2022-11-15T15:47:36;13.55;;;8.35;;
41739;SDS011;27422;52.444;13.300;2022-11-15T15:50:02;13.77;;;8.23;;
41739;SDS011;27422;52.444;13.300;2022-11-15T15:52:28;15.15;;;8.38;;
41739;SDS011;27422;52.444;13.300;2022-11-15T15:54:54;16.25;;;9.38;;
41739;SDS011;27422;52.444;13.300;2022-11-15T15:57:19;13.07;;;8.32;;
41739;SDS011;27422;52.444;13.300;2022-11-15T15:59:45;16.42;;;8.52;;
41739;SDS011;27422;52.444;13.300;2022-11-15T16:02:13;13.18;;;8.32;;
41739;SDS011;27422;52.444;13.300;2022-11-15T16:04:39;13.68;;;8.50;;
41739;SDS011;27422;52.444;13.300;2022-11-15T16:07:04;14.32;;;8.73;;
41739;SDS011;27422;52.444;13.300;2022-11-15T16:09:30;15.77;;;8.88;;
41739;SDS011;27422;52.444;13.300;2022-11-15T16:12:13;17.52;;;9.55;;
41739;SDS011;27422;52.444;13.300;2022-11-15T16:14:41;13.73;;;8.43;;
41739;SDS011;27422;52.444;13.300;2022-11-15T16:17:08;13.55;;;8.50;;
41739;SDS011;27422;52.444;13.300;2022-11-15T16:19:36;14.80;;;8.68;;
41739;SDS011;27422;52.444;13.300;2022-11-15T16:22:02;15.82;;;9.02;;
41739;SDS011;27422;52.444;13.300;2022-11-15T16:24:27;15.85;;;8.60;;
41739;SDS011;27422;52.444;13.300;2022-11-15T16:26:52;15.90;;;9.65;;
41739;SDS011;27422;52.444;13.300;2022-11-15T16:29:18;16.48;;;9.40;;
41739;SDS011;27422;52.444;13.300;2022-11-15T16:31:43;17.17;;;9.57;;
41739;SDS011;27422;52.444;13.300;2022-11-15T16:34:09;16.42;;;8.98;;
41739;SDS011;27422;52.444;13.300;2022-11-15T16:36:34;18.42;;;9.63;;
41739;SDS011;27422;52.444;13.300;2022-11-15T16:39:00;14.45;;;8.85;;
41739;SDS011;27422;52.444;13.300;2022-11-15T16:41:29;16.77;;;9.23;;
41739;SDS011;27422;52.444;13.300;2022-11-15T16:43:54;16.15;;;9.73;;
41739;SDS011;27422;52.444;13.300;2022-11-15T16:48:46;15.07;;;9.40;;